sensor_id;sensor_type;location;lat;lon;timestamp;P1;durP1;ratioP1;P2;durP2;ratioP2
28623;SDS011;15813;46.932;19.658;2023-04-24T00:02:00;15.50;;;9.57;;
28623;SDS011;15813;46.932;19.658;2023-04-24T00:04:25;14.80;;;9.52;;
28623;SDS011;15813;46.932;19.658;2023-04-24T00:06:51;13.75;;;8.93;;
28623;SDS011;15813;46.932;19.658;2023-04-24T00:09:19;13.00;;;8.52;;
28623;SDS011;15813;46.932;19.658;2023-04-24T00:11:44;20.50;;;9.57;;
28623;SDS011;15813;46.932;19.658;2023-04-24T00:14:09;18.17;;;9.20;;
28623;SDS011;15813;46.932;19.658;2023-04-24T00:16:35;18.20;;;9.20;;
28623;SDS011;15813;46.932;19.658;2023-04-24T00:19:00;15.98;;;9.98;;
28623;SDS011;15813;46.932;19.658;2023-04-24T00:21:25;14.43;;;9.18;;
28623;SDS011;15813;46.932;19.658;2023-04-24T00:23:51;13.50;;;8.75;;
28623;SDS011;15813;46.932;19.658;2023-04-24T00:26:16;12.90;;;8.50;;
28623;SDS011;15813;46.932;19.658;2023-04-24T00:28:42;14.18;;;8.40;;
28623;SDS011;15813;46.932;19.658;2023-04-24T00:31:07;14.95;;;8.95;;
28623;SDS011;15813;46.932;19.658;2023-04-24T00:33:32;15.20;;;8.88;;
28623;SDS011;15813;46.932;19.658;2023-04-24T00:35:58;17.98;;;9.48;;
28623;SDS011;15813;46.932;19.658;2023-04-24T00:38:23;15.13;;;8.80;;
28623;SDS011;15813;46.932;19.658;2023-04-24T00:40:48;13.98;;;7.97;;
28623;SDS011;15813;46.932;19.658;2023-04-24T00:43:15;16.15;;;7.97;;
28623;SDS011;15813;46.932;19.658;2023-04-24T00:45:40;17.67;;;7.88;;
28623;SDS011;15813;46.932;19.658;2023-04-24T00:48:06;11.65;;;8.07;;
28623;SDS011;15813;46.932;19.658;2023-04-24T00:50:31;13.50;;;8.00;;
28623;SDS011;15813;46.932;19.658;2023-04-24T00:52:56;18.70;;;9.00;;
28623;SDS011;15813;46.932;19.658;2023-04-24T00:55:22;13.45;;;9.07;;
28623;SDS011;15813;46.932;19.658;2023-04-24T00:57:47;14.10;;;9.95;;
28623;SDS011;15813;46.932;19.658;2023-04-24T01:00:13;16.60;;;9.35;;
28623;SDS011;15813;46.932;19.658;2023-04-24T01:02:40;22.23;;;8.98;;
28623;SDS011;15813;46.932;19.658;2023-04-24T01:05:09;17.98;;;8.98;;
28623;SDS011;15813;46.932;19.658;2023-04-24T01:07:34;14.60;;;9.15;;
28623;SDS011;15813;46.932;19.658;2023-04-24T01:09:59;15.80;;;8.85;;
28623;SDS011;15813;46.932;19.658;2023-04-24T01:12:25;19.35;;;9.13;;
28623;SDS011;15813;46.932;19.658;2023-04-24T01:14:50;12.52;;;8.32;;
28623;SDS011;15813;46.932;19.658;2023-04-24T01:17:15;21.60;;;8.93;;
28623;SDS011;15813;46.932;19.658;2023-04-24T01:19:40;13.23;;;8.05;;
28623;SDS011;15813;46.932;19.658;2023-04-24T01:22:15;20.08;;;8.68;;
28623;SDS011;15813;46.932;19.658;2023-04-24T01:24:41;16.20;;;9.02;;
28623;SDS011;15813;46.932;19.658;2023-04-24T01:27:07;16.23;;;8.80;;
28623;SDS011;15813;46.932;19.658;2023-04-24T01:29:32;20.75;;;8.75;;
28623;SDS011;15813;46.932;19.658;2023-04-24T01:31:58;13.18;;;8.38;;
28623;SDS011;15813;46.932;19.658;2023-04-24T01:34:24;15.98;;;9.45;;
28623;SDS011;15813;46.932;19.658;2023-04-24T01:36:49;13.73;;;7.80;;
28623;SDS011;15813;46.932;19.658;2023-04-24T01:39:15;16.95;;;8.32;;
28623;SDS011;15813;46.932;19.658;2023-04-24T01:41:41;14.60;;;8.15;;
28623;SDS011;15813;46.932;19.658;2023-04-24T01:44:07;11.40;;;7.85;;
28623;SDS011;15813;46.932;19.658;2023-04-24T01:46:32;11.60;;;8.07;;
28623;SDS011;15813;46.932;19.658;2023-04-24T01:49:00;14.98;;;8.25;;
28623;SDS011;15813;46.932;19.658;2023-04-24T01:51:25;22.02;;;8.48;;
28623;SDS011;15813;46.932;19.658;2023-04-24T01:53:50;18.17;;;8.60;;
28623;SDS011;15813;46.932;19.658;2023-04-24T01:56:16;14.27;;;8.68;;
28623;SDS011;15813;46.932;19.658;2023-04-24T01:58:41;17.92;;;8.02;;
28623;SDS011;15813;46.932;19.658;2023-04-24T02:01:07;12.38;;;8.15;;
28623;SDS011;15813;46.932;19.658;2023-04-24T02:03:33;17.45;;;9.02;;
28623;SDS011;15813;46.932;19.658;2023-04-24T02:05:58;17.20;;;8.50;;
28623;SDS011;15813;46.932;19.658;2023-04-24T02:08:23;16.63;;;8.00;;
28623;SDS011;15813;46.932;19.658;2023-04-24T02:10:49;13.10;;;8.55;;
28623;SDS011;15813;46.932;19.658;2023-04-24T02:13:14;14.82;;;9.55;;
28623;SDS011;15813;46.932;19.658;2023-04-24T02:15:39;22.55;;;9.52;;
28623;SDS011;15813;46.932;19.658;2023-04-24T02:18:05;20.52;;;10.90;;
28623;SDS011;15813;46.932;19.658;2023-04-24T02:20:31;18.05;;;9.98;;
28623;SDS011;15813;46.932;19.658;2023-04-24T02:22:59;18.80;;;9.75;;
28623;SDS011;15813;46.932;19.658;2023-04-24T02:25:24;19.73;;;9.02;;
28623;SDS011;15813;46.932;19.658;2023-04-24T02:27:49;15.80;;;9.30;;
28623;SDS011;15813;46.932;19.658;2023-04-24T02:30:15;14.20;;;9.23;;
28623;SDS011;15813;46.932;19.658;2023-04-24T02:32:40;19.88;;;10.02;;
28623;SDS011;15813;46.932;19.658;2023-04-24T02:35:05;14.52;;;9.18;;
28623;SDS011;15813;46.932;19.658;2023-04-24T02:37:31;13.88;;;8.82;;
28623;SDS011;15813;46.932;19.658;2023-04-24T02:39:56;15.65;;;9.63;;
28623;SDS011;15813;46.932;19.658;2023-04-24T02:42:21;11.07;;;8.50;;
28623;SDS011;15813;46.932;19.658;2023-04-24T02:44:47;18.92;;;8.20;;
28623;SDS011;15813;46.932;19.658;2023-04-24T02:47:12;16.20;;;9.13;;
28623;SDS011;15813;46.932;19.658;2023-04-24T02:49:37;12.85;;;8.82;;
28623;SDS011;15813;46.932;19.658;2023-04-24T02:52:03;17.90;;;9.18;;
28623;SDS011;15813;46.932;19.658;2023-04-24T02:54:28;12.73;;;8.00;;
28623;SDS011;15813;46.932;19.658;2023-04-24T02:56:53;16.90;;;8.65;;
28623;SDS011;15813;46.932;19.658;2023-04-24T02:59:18;12.90;;;8.18;;
28623;SDS011;15813;46.932;19.658;2023-04-24T03:01:44;12.30;;;8.77;;
28623;SDS011;15813;46.932;19.658;2023-04-24T03:04:09;12.35;;;8.80;;
28623;SDS011;15813;46.932;19.658;2023-04-24T03:06:35;16.30;;;9.43;;
28623;SDS011;15813;46.932;19.658;2023-04-24T03:09:01;19.13;;;9.18;;
28623;SDS011;15813;46.932;19.658;2023-04-24T03:11:26;16.55;;;8.27;;
28623;SDS011;15813;46.932;19.658;2023-04-24T03:13:51;14.25;;;9.00;;
28623;SDS011;15813;46.932;19.658;2023-04-24T03:16:17;12.38;;;9.15;;
28623;SDS011;15813;46.932;19.658;2023-04-24T03:18:42;15.32;;;9.73;;
28623;SDS011;15813;46.932;19.658;2023-04-24T03:21:07;14.07;;;9.05;;
28623;SDS011;15813;46.932;19.658;2023-04-24T03:23:32;12.27;;;9.15;;
28623;SDS011;15813;46.932;19.658;2023-04-24T03:25:58;16.15;;;10.35;;
28623;SDS011;15813;46.932;19.658;2023-04-24T03:28:23;17.63;;;9.70;;
28623;SDS011;15813;46.932;19.658;2023-04-24T03:30:50;19.40;;;9.18;;
28623;SDS011;15813;46.932;19.658;2023-04-24T03:33:15;16.08;;;10.20;;
28623;SDS011;15813;46.932;19.658;2023-04-24T03:35:40;12.02;;;9.35;;
28623;SDS011;15813;46.932;19.658;2023-04-24T03:38:06;14.38;;;8.80;;
28623;SDS011;15813;46.932;19.658;2023-04-24T03:40:31;14.43;;;9.57;;
28623;SDS011;15813;46.932;19.658;2023-04-24T03:42:58;20.35;;;10.60;;
28623;SDS011;15813;46.932;19.658;2023-04-24T03:45:23;19.02;;;10.02;;
28623;SDS011;15813;46.932;19.658;2023-04-24T03:47:49;17.65;;;9.70;;
28623;SDS011;15813;46.932;19.658;2023-04-24T03:50:15;20.65;;;10.32;;
28623;SDS011;15813;46.932;19.658;2023-04-24T03:52:40;15.27;;;10.05;;
28623;SDS011;15813;46.932;19.658;2023-04-24T03:55:06;18.05;;;10.85;;
28623;SDS011;15813;46.932;19.658;2023-04-24T03:57:31;21.02;;;11.18;;
28623;SDS011;15813;46.932;19.658;2023-04-24T03:59:56;17.75;;;11.60;;
28623;SDS011;15813;46.932;19.658;2023-04-24T04:02:22;18.75;;;11.23;;
28623;SDS011;15813;46.932;19.658;2023-04-24T04:04:47;23.33;;;12.70;;
28623;SDS011;15813;46.932;19.658;2023-04-24T04:07:12;20.05;;;11.35;;
28623;SDS011;15813;46.932;19.658;2023-04-24T04:09:38;22.50;;;12.57;;
28623;SDS011;15813;46.932;19.658;2023-04-24T04:12:03;19.98;;;11.15;;
28623;SDS011;15813;46.932;19.658;2023-04-24T04:14:29;16.40;;;10.68;;
28623;SDS011;15813;46.932;19.658;2023-04-24T04:16:55;18.50;;;10.95;;
28623;SDS011;15813;46.932;19.658;2023-04-24T04:19:20;17.38;;;11.60;;
28623;SDS011;15813;46.932;19.658;2023-04-24T04:21:45;14.85;;;10.38;;
28623;SDS011;15813;46.932;19.658;2023-04-24T04:24:11;18.00;;;11.30;;
28623;SDS011;15813;46.932;19.658;2023-04-24T04:26:36;19.40;;;11.20;;
28623;SDS011;15813;46.932;19.658;2023-04-24T04:29:02;17.13;;;11.43;;
28623;SDS011;15813;46.932;19.658;2023-04-24T04:31:28;17.38;;;11.35;;
28623;SDS011;15813;46.932;19.658;2023-04-24T04:33:54;17.15;;;11.82;;
28623;SDS011;15813;46.932;19.658;2023-04-24T04:36:19;21.90;;;13.00;;
28623;SDS011;15813;46.932;19.658;2023-04-24T04:38:45;18.60;;;12.15;;
28623;SDS011;15813;46.932;19.658;2023-04-24T04:41:10;21.30;;;11.90;;
28623;SDS011;15813;46.932;19.658;2023-04-24T04:43:35;20.23;;;12.32;;
28623;SDS011;15813;46.932;19.658;2023-04-24T04:46:01;19.05;;;12.38;;
28623;SDS011;15813;46.932;19.658;2023-04-24T04:48:28;21.92;;;12.93;;
28623;SDS011;15813;46.932;19.658;2023-04-24T04:50:53;22.55;;;12.88;;
28623;SDS011;15813;46.932;19.658;2023-04-24T04:53:19;24.63;;;12.95;;
28623;SDS011;15813;46.932;19.658;2023-04-24T04:55:44;26.95;;;14.00;;
28623;SDS011;15813;46.932;19.658;2023-04-24T04:58:10;22.30;;;13.40;;
28623;SDS011;15813;46.932;19.658;2023-04-24T05:00:35;28.85;;;13.48;;
28623;SDS011;15813;46.932;19.658;2023-04-24T05:03:02;20.63;;;12.25;;
28623;SDS011;15813;46.932;19.658;2023-04-24T05:05:27;18.08;;;11.73;;
28623;SDS011;15813;46.932;19.658;2023-04-24T05:07:53;20.02;;;12.27;;
28623;SDS011;15813;46.932;19.658;2023-04-24T05:10:18;24.65;;;12.15;;
28623;SDS011;15813;46.932;19.658;2023-04-24T05:12:44;17.20;;;10.82;;
28623;SDS011;15813;46.932;19.658;2023-04-24T05:15:09;19.95;;;10.85;;
28623;SDS011;15813;46.932;19.658;2023-04-24T05:17:35;16.23;;;11.18;;
28623;SDS011;15813;46.932;19.658;2023-04-24T05:20:00;20.02;;;10.68;;
28623;SDS011;15813;46.932;19.658;2023-04-24T05:22:25;23.88;;;10.75;;
28623;SDS011;15813;46.932;19.658;2023-04-24T05:24:51;17.23;;;10.63;;
28623;SDS011;15813;46.932;19.658;2023-04-24T05:27:16;14.13;;;9.45;;
28623;SDS011;15813;46.932;19.658;2023-04-24T05:29:41;17.63;;;10.82;;
28623;SDS011;15813;46.932;19.658;2023-04-24T05:32:07;20.77;;;10.48;;
28623;SDS011;15813;46.932;19.658;2023-04-24T05:34:32;21.13;;;12.68;;
28623;SDS011;15813;46.932;19.658;2023-04-24T05:36:57;17.33;;;10.27;;
28623;SDS011;15813;46.932;19.658;2023-04-24T05:39:23;20.02;;;9.93;;
28623;SDS011;15813;46.932;19.658;2023-04-24T05:41:49;21.55;;;10.57;;
28623;SDS011;15813;46.932;19.658;2023-04-24T05:44:15;21.05;;;11.32;;
28623;SDS011;15813;46.932;19.658;2023-04-24T05:46:40;21.88;;;11.32;;
28623;SDS011;15813;46.932;19.658;2023-04-24T05:49:05;16.38;;;10.27;;
28623;SDS011;15813;46.932;19.658;2023-04-24T05:51:31;17.30;;;10.50;;
28623;SDS011;15813;46.932;19.658;2023-04-24T05:53:56;13.25;;;9.70;;
28623;SDS011;15813;46.932;19.658;2023-04-24T05:56:22;17.60;;;9.98;;
28623;SDS011;15813;46.932;19.658;2023-04-24T05:58:47;21.83;;;10.13;;
28623;SDS011;15813;46.932;19.658;2023-04-24T06:01:13;17.17;;;10.55;;
28623;SDS011;15813;46.932;19.658;2023-04-24T06:03:39;16.75;;;9.68;;
28623;SDS011;15813;46.932;19.658;2023-04-24T06:06:05;21.05;;;11.02;;
28623;SDS011;15813;46.932;19.658;2023-04-24T06:08:31;19.27;;;10.45;;
28623;SDS011;15813;46.932;19.658;2023-04-24T06:10:56;22.20;;;10.93;;
28623;SDS011;15813;46.932;19.658;2023-04-24T06:13:21;19.98;;;11.00;;
28623;SDS011;15813;46.932;19.658;2023-04-24T06:15:46;18.35;;;10.88;;
28623;SDS011;15813;46.932;19.658;2023-04-24T06:18:12;13.13;;;9.98;;
28623;SDS011;15813;46.932;19.658;2023-04-24T06:20:37;20.92;;;12.02;;
28623;SDS011;15813;46.932;19.658;2023-04-24T06:23:03;20.55;;;10.60;;
28623;SDS011;15813;46.932;19.658;2023-04-24T06:25:28;17.00;;;9.40;;
28623;SDS011;15813;46.932;19.658;2023-04-24T06:27:53;16.42;;;11.52;;
28623;SDS011;15813;46.932;19.658;2023-04-24T06:30:19;15.45;;;12.52;;
28623;SDS011;15813;46.932;19.658;2023-04-24T06:32:44;18.40;;;10.25;;
28623;SDS011;15813;46.932;19.658;2023-04-24T06:35:10;17.20;;;10.65;;
28623;SDS011;15813;46.932;19.658;2023-04-24T06:37:36;19.38;;;11.27;;
28623;SDS011;15813;46.932;19.658;2023-04-24T06:40:01;19.10;;;11.23;;
28623;SDS011;15813;46.932;19.658;2023-04-24T06:42:27;20.33;;;12.40;;
28623;SDS011;15813;46.932;19.658;2023-04-24T06:44:52;18.67;;;11.25;;
28623;SDS011;15813;46.932;19.658;2023-04-24T06:48:02;17.50;;;11.75;;
28623;SDS011;15813;46.932;19.658;2023-04-24T06:50:27;17.33;;;11.27;;
28623;SDS011;15813;46.932;19.658;2023-04-24T06:52:53;22.45;;;12.85;;
28623;SDS011;15813;46.932;19.658;2023-04-24T06:55:18;25.05;;;13.13;;
28623;SDS011;15813;46.932;19.658;2023-04-24T06:57:43;29.77;;;12.55;;
28623;SDS011;15813;46.932;19.658;2023-04-24T07:00:09;20.27;;;12.98;;
28623;SDS011;15813;46.932;19.658;2023-04-24T07:02:35;18.33;;;11.95;;
28623;SDS011;15813;46.932;19.658;2023-04-24T07:05:00;19.20;;;12.45;;
28623;SDS011;15813;46.932;19.658;2023-04-24T07:07:26;24.25;;;13.15;;
28623;SDS011;15813;46.932;19.658;2023-04-24T07:09:52;20.42;;;11.98;;
28623;SDS011;15813;46.932;19.658;2023-04-24T07:12:19;22.33;;;12.90;;
28623;SDS011;15813;46.932;19.658;2023-04-24T07:14:45;20.00;;;12.68;;
28623;SDS011;15813;46.932;19.658;2023-04-24T07:17:11;21.27;;;13.35;;
28623;SDS011;15813;46.932;19.658;2023-04-24T07:19:38;20.73;;;13.77;;
28623;SDS011;15813;46.932;19.658;2023-04-24T07:22:03;20.15;;;13.95;;
28623;SDS011;15813;46.932;19.658;2023-04-24T07:24:28;23.13;;;13.10;;
28623;SDS011;15813;46.932;19.658;2023-04-24T07:26:54;24.45;;;15.20;;
28623;SDS011;15813;46.932;19.658;2023-04-24T07:29:19;22.23;;;12.82;;
28623;SDS011;15813;46.932;19.658;2023-04-24T07:31:45;21.13;;;14.25;;
28623;SDS011;15813;46.932;19.658;2023-04-24T07:34:11;21.00;;;13.27;;
28623;SDS011;15813;46.932;19.658;2023-04-24T07:36:36;20.30;;;13.00;;
28623;SDS011;15813;46.932;19.658;2023-04-24T07:39:03;19.52;;;12.35;;
28623;SDS011;15813;46.932;19.658;2023-04-24T07:41:28;24.85;;;13.40;;
28623;SDS011;15813;46.932;19.658;2023-04-24T07:43:54;21.58;;;12.65;;
28623;SDS011;15813;46.932;19.658;2023-04-24T07:46:19;21.38;;;13.07;;
28623;SDS011;15813;46.932;19.658;2023-04-24T07:48:45;23.45;;;13.65;;
28623;SDS011;15813;46.932;19.658;2023-04-24T07:51:11;22.17;;;13.77;;
28623;SDS011;15813;46.932;19.658;2023-04-24T07:53:38;26.80;;;15.73;;
28623;SDS011;15813;46.932;19.658;2023-04-24T07:56:04;23.98;;;15.30;;
28623;SDS011;15813;46.932;19.658;2023-04-24T07:58:29;23.02;;;14.57;;
28623;SDS011;15813;46.932;19.658;2023-04-24T08:00:54;24.08;;;15.20;;
28623;SDS011;15813;46.932;19.658;2023-04-24T08:03:19;26.75;;;15.30;;
28623;SDS011;15813;46.932;19.658;2023-04-24T08:05:45;24.17;;;15.30;;
28623;SDS011;15813;46.932;19.658;2023-04-24T08:08:10;27.17;;;15.45;;
28623;SDS011;15813;46.932;19.658;2023-04-24T08:10:36;21.05;;;14.68;;
28623;SDS011;15813;46.932;19.658;2023-04-24T08:13:01;22.98;;;15.48;;
28623;SDS011;15813;46.932;19.658;2023-04-24T08:15:27;21.58;;;15.02;;
28623;SDS011;15813;46.932;19.658;2023-04-24T08:17:53;33.22;;;15.73;;
28623;SDS011;15813;46.932;19.658;2023-04-24T08:20:18;22.98;;;15.48;;
28623;SDS011;15813;46.932;19.658;2023-04-24T08:22:43;23.70;;;15.52;;
28623;SDS011;15813;46.932;19.658;2023-04-24T08:25:10;25.65;;;15.32;;
28623;SDS011;15813;46.932;19.658;2023-04-24T08:27:36;25.65;;;16.27;;
28623;SDS011;15813;46.932;19.658;2023-04-24T08:30:04;23.60;;;15.73;;
28623;SDS011;15813;46.932;19.658;2023-04-24T08:32:30;21.58;;;14.52;;
28623;SDS011;15813;46.932;19.658;2023-04-24T08:34:56;25.45;;;14.82;;
28623;SDS011;15813;46.932;19.658;2023-04-24T08:37:21;19.88;;;13.07;;
28623;SDS011;15813;46.932;19.658;2023-04-24T08:39:47;19.52;;;13.68;;
28623;SDS011;15813;46.932;19.658;2023-04-24T08:42:12;18.15;;;11.68;;
28623;SDS011;15813;46.932;19.658;2023-04-24T08:44:38;20.85;;;13.50;;
28623;SDS011;15813;46.932;19.658;2023-04-24T08:47:03;23.42;;;11.43;;
28623;SDS011;15813;46.932;19.658;2023-04-24T08:49:29;22.23;;;12.13;;
28623;SDS011;15813;46.932;19.658;2023-04-24T08:51:54;22.77;;;12.70;;
28623;SDS011;15813;46.932;19.658;2023-04-24T08:54:20;15.50;;;11.00;;
28623;SDS011;15813;46.932;19.658;2023-04-24T08:56:45;17.55;;;11.05;;
28623;SDS011;15813;46.932;19.658;2023-04-24T08:59:12;20.58;;;12.02;;
28623;SDS011;15813;46.932;19.658;2023-04-24T09:01:38;21.63;;;12.43;;
28623;SDS011;15813;46.932;19.658;2023-04-24T09:04:05;18.52;;;12.77;;
28623;SDS011;15813;46.932;19.658;2023-04-24T09:06:31;22.33;;;11.93;;
28623;SDS011;15813;46.932;19.658;2023-04-24T09:08:59;15.27;;;11.45;;
28623;SDS011;15813;46.932;19.658;2023-04-24T09:11:25;17.38;;;11.77;;
28623;SDS011;15813;46.932;19.658;2023-04-24T09:13:51;16.23;;;11.38;;
28623;SDS011;15813;46.932;19.658;2023-04-24T09:16:16;19.73;;;10.77;;
28623;SDS011;15813;46.932;19.658;2023-04-24T09:18:42;18.02;;;10.55;;
28623;SDS011;15813;46.932;19.658;2023-04-24T09:21:08;14.20;;;9.27;;
28623;SDS011;15813;46.932;19.658;2023-04-24T09:23:34;16.10;;;8.93;;
28623;SDS011;15813;46.932;19.658;2023-04-24T09:26:00;14.77;;;9.02;;
28623;SDS011;15813;46.932;19.658;2023-04-24T09:28:29;14.70;;;8.18;;
28623;SDS011;15813;46.932;19.658;2023-04-24T09:31:05;13.15;;;7.28;;
28623;SDS011;15813;46.932;19.658;2023-04-24T09:33:30;9.38;;;5.88;;
28623;SDS011;15813;46.932;19.658;2023-04-24T09:35:56;12.43;;;6.10;;
28623;SDS011;15813;46.932;19.658;2023-04-24T09:38:30;12.27;;;6.05;;
28623;SDS011;15813;46.932;19.658;2023-04-24T09:40:55;10.57;;;6.90;;
28623;SDS011;15813;46.932;19.658;2023-04-24T09:43:23;13.60;;;6.90;;
28623;SDS011;15813;46.932;19.658;2023-04-24T09:45:51;12.60;;;7.90;;
28623;SDS011;15813;46.932;19.658;2023-04-24T09:48:20;18.83;;;7.97;;
28623;SDS011;15813;46.932;19.658;2023-04-24T09:50:46;12.88;;;8.30;;
28623;SDS011;15813;46.932;19.658;2023-04-24T09:53:12;15.88;;;8.45;;
28623;SDS011;15813;46.932;19.658;2023-04-24T09:55:42;12.85;;;7.85;;
28623;SDS011;15813;46.932;19.658;2023-04-24T09:58:09;10.43;;;6.95;;
28623;SDS011;15813;46.932;19.658;2023-04-24T10:00:35;12.43;;;6.50;;
28623;SDS011;15813;46.932;19.658;2023-04-24T10:03:01;21.92;;;7.60;;
28623;SDS011;15813;46.932;19.658;2023-04-24T10:05:28;10.32;;;6.80;;
28623;SDS011;15813;46.932;19.658;2023-04-24T10:07:57;13.65;;;6.85;;
28623;SDS011;15813;46.932;19.658;2023-04-24T10:10:23;9.10;;;7.38;;
28623;SDS011;15813;46.932;19.658;2023-04-24T10:12:48;12.13;;;7.50;;
28623;SDS011;15813;46.932;19.658;2023-04-24T10:15:14;11.48;;;6.97;;
28623;SDS011;15813;46.932;19.658;2023-04-24T10:17:41;11.68;;;6.88;;
28623;SDS011;15813;46.932;19.658;2023-04-24T10:20:07;10.15;;;6.32;;
28623;SDS011;15813;46.932;19.658;2023-04-24T10:22:33;10.25;;;6.32;;
28623;SDS011;15813;46.932;19.658;2023-04-24T10:24:58;15.32;;;6.53;;
28623;SDS011;15813;46.932;19.658;2023-04-24T10:27:24;8.48;;;5.97;;
28623;SDS011;15813;46.932;19.658;2023-04-24T10:29:49;12.13;;;6.07;;
28623;SDS011;15813;46.932;19.658;2023-04-24T10:32:16;14.02;;;6.55;;
28623;SDS011;15813;46.932;19.658;2023-04-24T10:34:42;11.02;;;6.68;;
28623;SDS011;15813;46.932;19.658;2023-04-24T10:37:07;13.70;;;7.20;;
28623;SDS011;15813;46.932;19.658;2023-04-24T10:39:32;16.77;;;6.55;;
28623;SDS011;15813;46.932;19.658;2023-04-24T10:41:58;9.48;;;5.88;;
28623;SDS011;15813;46.932;19.658;2023-04-24T10:44:23;11.38;;;6.13;;
28623;SDS011;15813;46.932;19.658;2023-04-24T10:46:52;15.13;;;6.88;;
28623;SDS011;15813;46.932;19.658;2023-04-24T10:49:18;7.22;;;5.95;;
28623;SDS011;15813;46.932;19.658;2023-04-24T10:51:52;11.57;;;6.88;;
28623;SDS011;15813;46.932;19.658;2023-04-24T10:54:28;16.73;;;7.90;;
28623;SDS011;15813;46.932;19.658;2023-04-24T10:59:38;12.10;;;7.95;;
28623;SDS011;15813;46.932;19.658;2023-04-24T11:02:03;10.70;;;6.97;;
28623;SDS011;15813;46.932;19.658;2023-04-24T11:04:32;10.13;;;5.47;;
28623;SDS011;15813;46.932;19.658;2023-04-24T11:06:58;8.20;;;4.55;;
28623;SDS011;15813;46.932;19.658;2023-04-24T11:09:26;10.93;;;3.97;;
28623;SDS011;15813;46.932;19.658;2023-04-24T11:11:51;7.28;;;3.70;;
28623;SDS011;15813;46.932;19.658;2023-04-24T11:14:27;9.70;;;3.50;;
28623;SDS011;15813;46.932;19.658;2023-04-24T11:16:53;6.55;;;2.85;;
28623;SDS011;15813;46.932;19.658;2023-04-24T11:19:23;6.63;;;2.70;;
28623;SDS011;15813;46.932;19.658;2023-04-24T11:21:58;3.65;;;2.20;;
28623;SDS011;15813;46.932;19.658;2023-04-24T11:24:29;7.88;;;2.20;;
28623;SDS011;15813;46.932;19.658;2023-04-24T11:26:55;4.18;;;1.88;;
28623;SDS011;15813;46.932;19.658;2023-04-24T11:29:21;2.33;;;1.52;;
28623;SDS011;15813;46.932;19.658;2023-04-24T11:31:47;7.45;;;1.80;;
28623;SDS011;15813;46.932;19.658;2023-04-24T11:34:16;3.97;;;1.50;;
28623;SDS011;15813;46.932;19.658;2023-04-24T11:36:42;7.03;;;2.05;;
28623;SDS011;15813;46.932;19.658;2023-04-24T11:39:08;3.03;;;1.67;;
28623;SDS011;15813;46.932;19.658;2023-04-24T11:41:33;7.07;;;1.77;;
28623;SDS011;15813;46.932;19.658;2023-04-24T11:43:59;2.67;;;1.67;;
28623;SDS011;15813;46.932;19.658;2023-04-24T11:46:28;3.20;;;1.45;;
28623;SDS011;15813;46.932;19.658;2023-04-24T11:48:55;8.20;;;1.45;;
28623;SDS011;15813;46.932;19.658;2023-04-24T11:51:21;4.05;;;1.70;;
28623;SDS011;15813;46.932;19.658;2023-04-24T11:53:47;2.38;;;1.25;;
28623;SDS011;15813;46.932;19.658;2023-04-24T11:56:13;1.80;;;1.35;;
28623;SDS011;15813;46.932;19.658;2023-04-24T11:58:42;5.60;;;1.52;;
28623;SDS011;15813;46.932;19.658;2023-04-24T12:01:08;3.67;;;1.45;;
28623;SDS011;15813;46.932;19.658;2023-04-24T12:03:33;2.35;;;1.50;;
28623;SDS011;15813;46.932;19.658;2023-04-24T12:06:08;1.80;;;1.45;;
28623;SDS011;15813;46.932;19.658;2023-04-24T12:08:33;1.52;;;1.40;;
28623;SDS011;15813;46.932;19.658;2023-04-24T12:11:02;2.03;;;1.33;;
28623;SDS011;15813;46.932;19.658;2023-04-24T12:13:28;3.20;;;1.50;;
28623;SDS011;15813;46.932;19.658;2023-04-24T12:15:54;2.72;;;1.50;;
28623;SDS011;15813;46.932;19.658;2023-04-24T12:18:22;2.47;;;1.70;;
28623;SDS011;15813;46.932;19.658;2023-04-24T12:20:47;3.03;;;1.63;;
28623;SDS011;15813;46.932;19.658;2023-04-24T12:23:12;2.72;;;1.80;;
28623;SDS011;15813;46.932;19.658;2023-04-24T12:25:38;2.40;;;1.67;;
28623;SDS011;15813;46.932;19.658;2023-04-24T12:30:29;3.08;;;1.50;;
28623;SDS011;15813;46.932;19.658;2023-04-24T12:32:56;3.65;;;1.98;;
28623;SDS011;15813;46.932;19.658;2023-04-24T12:35:22;3.15;;;2.65;;
28623;SDS011;15813;46.932;19.658;2023-04-24T12:37:48;3.58;;;1.98;;
28623;SDS011;15813;46.932;19.658;2023-04-24T12:40:13;1.50;;;1.40;;
28623;SDS011;15813;46.932;19.658;2023-04-24T12:42:44;1.75;;;1.63;;
28623;SDS011;15813;46.932;19.658;2023-04-24T12:45:09;3.55;;;1.50;;
28623;SDS011;15813;46.932;19.658;2023-04-24T12:47:37;2.67;;;1.90;;
28623;SDS011;15813;46.932;19.658;2023-04-24T12:50:02;3.15;;;1.75;;
28623;SDS011;15813;46.932;19.658;2023-04-24T12:52:28;4.03;;;1.77;;
28623;SDS011;15813;46.932;19.658;2023-04-24T12:54:54;2.80;;;2.10;;
28623;SDS011;15813;46.932;19.658;2023-04-24T12:57:20;2.60;;;1.90;;
28623;SDS011;15813;46.932;19.658;2023-04-24T12:59:45;2.38;;;1.90;;
28623;SDS011;15813;46.932;19.658;2023-04-24T13:02:11;2.75;;;2.28;;
28623;SDS011;15813;46.932;19.658;2023-04-24T13:04:36;3.17;;;1.88;;
28623;SDS011;15813;46.932;19.658;2023-04-24T13:07:01;5.13;;;2.10;;
28623;SDS011;15813;46.932;19.658;2023-04-24T13:09:27;4.13;;;2.17;;
28623;SDS011;15813;46.932;19.658;2023-04-24T13:11:52;4.35;;;2.00;;
28623;SDS011;15813;46.932;19.658;2023-04-24T13:14:17;2.60;;;2.00;;
28623;SDS011;15813;46.932;19.658;2023-04-24T13:16:43;5.50;;;2.10;;
28623;SDS011;15813;46.932;19.658;2023-04-24T13:19:08;5.20;;;2.40;;
28623;SDS011;15813;46.932;19.658;2023-04-24T13:21:33;6.25;;;2.60;;
28623;SDS011;15813;46.932;19.658;2023-04-24T13:23:59;3.45;;;2.50;;
28623;SDS011;15813;46.932;19.658;2023-04-24T13:26:24;4.55;;;2.47;;
28623;SDS011;15813;46.932;19.658;2023-04-24T13:28:50;6.18;;;2.92;;
28623;SDS011;15813;46.932;19.658;2023-04-24T13:31:15;3.22;;;2.65;;
28623;SDS011;15813;46.932;19.658;2023-04-24T13:33:41;4.97;;;3.38;;
28623;SDS011;15813;46.932;19.658;2023-04-24T13:36:06;4.97;;;3.03;;
28623;SDS011;15813;46.932;19.658;2023-04-24T13:38:31;13.05;;;2.80;;
28623;SDS011;15813;46.932;19.658;2023-04-24T13:40:57;5.80;;;2.83;;
28623;SDS011;15813;46.932;19.658;2023-04-24T13:43:22;7.03;;;2.92;;
28623;SDS011;15813;46.932;19.658;2023-04-24T13:45:47;4.25;;;2.80;;
28623;SDS011;15813;46.932;19.658;2023-04-24T13:48:13;4.68;;;2.95;;
28623;SDS011;15813;46.932;19.658;2023-04-24T13:50:40;7.85;;;2.90;;
28623;SDS011;15813;46.932;19.658;2023-04-24T13:53:05;4.35;;;2.72;;
28623;SDS011;15813;46.932;19.658;2023-04-24T13:55:31;5.20;;;2.43;;
28623;SDS011;15813;46.932;19.658;2023-04-24T13:57:56;4.97;;;2.55;;
28623;SDS011;15813;46.932;19.658;2023-04-24T14:00:21;13.77;;;2.72;;
28623;SDS011;15813;46.932;19.658;2023-04-24T14:02:47;7.38;;;3.35;;
28623;SDS011;15813;46.932;19.658;2023-04-24T14:05:13;7.88;;;2.50;;
28623;SDS011;15813;46.932;19.658;2023-04-24T14:07:40;5.25;;;3.00;;
28623;SDS011;15813;46.932;19.658;2023-04-24T14:10:05;6.28;;;3.00;;
28623;SDS011;15813;46.932;19.658;2023-04-24T14:12:30;5.28;;;2.85;;
28623;SDS011;15813;46.932;19.658;2023-04-24T14:14:56;7.10;;;3.13;;
28623;SDS011;15813;46.932;19.658;2023-04-24T14:17:21;4.72;;;2.42;;